Latest Weather Observations for Laverton

IDV60901

Issued at 10:11 am EDT Wednesday 22 February 2017 (issued every 10 minutes, with the page automatically refreshed every 10 minutes)

About weather observations | Map of Melbourne area stations | Latest observations for Melbourne area | Other Formats
Station Details ID: 087031 Name: LAVERTON RAAF Lat: -37.86 Lon: 144.76 Height: 20.1 m
Data from the previous 72 hours. | See also: Recent months at Laverton
Date/Time
EDT
Temp
°C
App
Temp
°C
Dew
Point
°C
Rel
Hum
%
Delta-T
°C
Wind Press
QNH
hPa
Press
MSL
hPa
Rain since
9am
mm
Dir  Spd
km/h
Gust
km/h
Spd
kts
Gust
kts
22/10:00am 24.2 17.8 5.1 29 9.6 NNE 28 39 15 21 1015.1 1015.0 0.0
22/09:30am 21.8 17.1 5.3 34 8.2 N 19 32 10 17 1015.2 1015.1 0.0
22/09:00am 19.6 15.3 5.3 39 7.0 N 17 28 9 15 1015.4 1015.3 0.0
22/08:30am 16.8 14.1 7.4 54 4.7 NNE 11 17 6 9 1015.4 1015.3 0.0
22/08:00am 14.1 12.0 8.1 67 3.0 NNE 9 15 5 8 1015.5 1015.4 0.0
22/07:30am 12.1 10.0 8.4 78 1.8 NNE 9 13 5 7 1015.4 1015.3 0.0
22/07:00am 11.2 9.7 8.4 83 1.4 NE 6 9 3 5 1015.4 1015.3 0.0
22/06:30am 11.9 9.6 8.9 82 1.5 NNE 11 13 6 7 1015.3 1015.2 0.0
22/06:00am 11.4 9.5 9.1 86 1.1 NE 9 13 5 7 1015.0 1014.9 0.0
22/05:30am 11.0 8.7 9.1 88 0.9 NE 11 13 6 7 1015.0 1014.9 0.0
22/05:00am 11.2 9.3 8.9 86 1.1 NNE 9 9 5 5 1015.3 1015.2 0.0
22/04:30am 10.9 9.4 9.0 88 0.9 NE 7 9 4 5 1015.5 1015.4 0.0
22/04:00am 11.8 10.1 9.7 87 1.1 NNE 9 11 5 6 1015.8 1015.7 0.0
22/03:30am 11.1 9.3 9.5 90 0.8 N 9 11 5 6 1015.9 1015.8 0.0
22/03:00am 11.2 10.1 9.8 91 0.7 NNW 6 7 3 4 1016.3 1016.2 0.0
22/02:30am 11.4 10.1 9.8 90 0.8 NNW 7 11 4 6 1016.5 1016.4 0.0
22/02:00am 11.6 10.0 10.2 91 0.7 NNW 9 11 5 6 1016.9 1016.8 0.0
22/01:30am 11.9 10.3 10.1 89 0.9 NW 9 11 5 6 1017.1 1017.0 0.0
22/01:00am 13.0 11.1 10.4 84 1.3 NW 11 11 6 6 1017.5 1017.4 0.0
22/12:30am 14.0 12.7 11.2 83 1.5 WNW 9 11 5 6 1017.9 1017.8 0.0
22/12:00am 15.6 15.0 11.8 78 2.1 SE 6 7 3 4 1018.2 1018.1 0.0
 
Date/Time
EDT
Temp
°C
App
Temp
°C
Dew
Point
°C
Rel
Hum
%
Delta-T
°C
Wind Press
QNH
hPa
Press
MSL
hPa
Rain since
9am
mm
Dir  Spd
km/h
Gust
km/h
Spd
kts
Gust
kts
21/11:30pm 16.2 15.4 11.8 75 2.4 ESE 7 11 4 6 1018.3 1018.2 0.0
21/11:00pm 16.3 15.1 11.7 74 2.5 ESE 9 13 5 7 1018.4 1018.3 0.0
21/10:30pm 17.0 15.8 11.7 71 2.9 ESE 9 15 5 8 1018.6 1018.5 0.0
21/10:00pm 17.9 15.1 11.5 66 3.5 ESE 17 26 9 14 1018.5 1018.4 0.0
21/09:30pm 18.2 16.4 12.2 68 3.3 SE 13 19 7 10 1018.4 1018.3 0.0
21/09:00pm 18.6 16.4 12.1 66 3.6 ESE 15 20 8 11 1017.9 1017.8 0.0
21/08:30pm 19.2 16.8 12.7 66 3.7 SE 17 22 9 12 1017.7 1017.6 0.0
21/08:00pm 19.7 16.9 12.7 64 3.9 SE 19 26 10 14 1017.4 1017.3 0.0
21/07:30pm 20.3 17.3 12.0 59 4.6 SE 19 26 10 14 1017.3 1017.2 0.0
21/07:00pm 20.9 16.3 6.4 39 7.3 SE 20 30 11 16 1017.5 1017.4 0.0
21/06:30pm 21.2 17.4 7.4 41 7.1 SE 17 24 9 13 1017.5 1017.4 0.0
21/06:00pm 21.3 16.9 7.2 40 7.2 SE 20 26 11 14 1017.6 1017.5 0.0
21/05:30pm 21.4 16.9 6.9 39 7.4 SE 20 26 11 14 1017.8 1017.7 0.0
21/05:00pm 21.4 17.1 8.0 42 7.0 SE 20 28 11 15 1018.0 1017.9 0.0
21/04:30pm 21.5 17.0 7.0 39 7.4 SE 20 30 11 16 1018.6 1018.5 0.0
21/04:00pm 21.3 16.9 7.2 40 7.2 SE 20 28 11 15 1018.8 1018.7 0.0
21/03:30pm 21.6 17.5 7.8 41 7.2 SE 19 24 10 13 1019.1 1019.0 0.0
21/03:00pm 21.4 18.1 8.0 42 7.0 SE 15 24 8 13 1019.6 1019.5 0.0
21/02:30pm 21.1 18.2 8.0 43 6.8 SE 13 20 7 11 1019.9 1019.8 0.0
21/02:00pm 20.4 17.3 8.7 47 6.1 ESE 15 24 8 13 1020.2 1020.1 0.0
21/01:30pm 20.0 17.1 9.6 51 5.5 ESE 15 22 8 12 1020.6 1020.5 0.0
21/01:00pm 19.8 16.3 8.8 49 5.7 E 17 26 9 14 1021.0 1020.9 0.0
21/12:30pm 19.5 17.4 9.7 53 5.2 ESE 11 17 6 9 1021.5 1021.4 0.0
21/12:00pm 19.0 17.5 9.2 53 5.1 SSE 7 17 4 9 1021.6 1021.5 0.0
21/11:30am 18.9 17.3 8.6 51 5.3 SW 7 11 4 6 1021.5 1021.4 0.0
21/11:00am 18.4 16.6 9.5 56 4.7 S 9 13 5 7 1021.8 1021.7 0.0
21/10:30am 17.3 16.1 9.5 60 4.1 ESE 6 9 3 5 1022.0 1021.9 0.0
21/10:00am 16.0 14.1 9.2 64 3.5 WNW 9 11 5 6 1022.1 1022.0 0.0
21/09:30am 15.2 13.7 9.3 68 3.0 W 7 11 4 6 1021.9 1021.8 0.0
21/09:00am 13.8 12.0 9.5 75 2.2 NW 9 13 5 7 1021.6 1021.5 0.0
21/08:30am 11.6 10.0 8.6 82 1.5 NW 7 11 4 6 1021.3 1021.2 0.0
21/08:00am 9.8 7.7 8.2 90 0.8 NW 9 11 5 6 1021.1 1021.0 0.0
21/07:30am 7.9 5.4 6.7 92 0.6 NNW 9 11 5 6 1020.6 1020.5 0.0
21/07:00am 8.0 5.6 6.8 92 0.6 NNW 9 11 5 6 1020.2 1020.1 0.0
21/06:30am 7.8 4.9 6.7 93 0.5 NNW 11 13 6 7 1019.7 1019.6 0.0
21/06:00am 7.8 4.9 6.6 92 0.5 NW 11 13 6 7 1019.3 1019.2 0.0
21/05:30am 8.2 5.0 6.7 90 0.7 NW 13 13 7 7 1019.2 1019.1 0.0
21/05:00am 8.4 6.0 7.0 91 0.7 WNW 9 11 5 6 1019.1 1019.0 0.0
21/04:30am 8.2 5.0 6.8 91 0.6 NW 13 15 7 8 1019.1 1019.0 0.0
21/04:00am 8.4 5.2 6.9 90 0.7 NW 13 15 7 8 1018.9 1018.8 0.0
21/03:30am 8.6 5.5 7.1 90 0.7 NW 13 15 7 8 1019.0 1018.9 0.0
21/03:00am 8.9 5.4 7.2 89 0.8 NW 15 17 8 9 1018.9 1018.8 0.0
21/02:30am 8.8 5.7 7.1 89 0.8 NW 13 15 7 8 1018.7 1018.6 0.0
21/02:00am 9.2 6.1 7.2 87 0.9 NW 13 17 7 9 1018.9 1018.8 0.0
21/01:30am 9.5 6.7 6.9 84 1.2 NW 11 15 6 8 1019.0 1018.9 0.0
21/01:00am 9.4 6.2 6.7 83 1.3 NW 13 15 7 8 1019.1 1019.0 0.0
21/12:30am 10.3 6.7 6.8 79 1.6 NW 15 17 8 9 1019.2 1019.1 0.0
21/12:00am 11.8 9.1 7.3 74 2.2 WNW 11 15 6 8 1019.0 1018.9 0.0
 
Date/Time
EDT
Temp
°C
App
Temp
°C
Dew
Point
°C
Rel
Hum
%
Delta-T
°C
Wind Press
QNH
hPa
Press
MSL
hPa
Rain since
9am
mm
Dir  Spd
km/h
Gust
km/h
Spd
kts
Gust
kts
20/11:30pm 13.9 10.9 7.9 67 3.0 W 13 20 7 11 1019.0 1018.9 0.0
20/11:00pm 14.4 11.0 7.7 64 3.3 W 15 19 8 10 1018.8 1018.7 0.0
20/10:30pm 15.1 11.6 7.2 59 3.9 WSW 15 20 8 11 1018.7 1018.6 0.0
20/10:00pm 14.9 12.3 7.7 62 3.6 WSW 11 15 6 8 1018.3 1018.2 0.0
20/09:30pm 14.8 12.9 10.6 76 2.2 SW 11 15 6 8 1018.0 1017.9 0.0
20/09:00pm 15.5 12.9 10.7 73 2.5 SSW 15 22 8 12 1017.5 1017.4 0.0
20/08:30pm 15.9 12.8 10.2 69 3.0 SSW 17 24 9 13 1016.9 1016.8 0.0
20/08:00pm 16.9 13.2 10.3 65 3.5 SSW 20 28 11 15 1016.5 1016.4 0.0
20/07:30pm 17.5 13.3 9.9 61 4.0 SSW 22 30 12 16 1015.9 1015.8 0.0
20/07:00pm 17.7 13.5 9.8 60 4.2 SSW 22 32 12 17 1015.5 1015.4 0.0
20/06:30pm 17.7 13.1 9.6 59 4.3 S 24 35 13 19 1015.0 1014.9 0.0
20/06:00pm 18.0 13.1 9.9 59 4.3 SSW 26 35 14 19 1014.8 1014.7 0.0
20/05:30pm 18.4 13.7 9.2 55 4.8 SSW 24 33 13 18 1014.5 1014.4 0.0
20/05:00pm 18.5 14.8 10.1 58 4.5 S 20 30 11 16 1014.1 1014.0 0.0
20/04:30pm 19.0 14.1 10.0 56 4.8 SSW 26 35 14 19 1013.8 1013.7 0.0
20/04:00pm 18.9 14.9 9.1 53 5.1 S 20 32 11 17 1013.5 1013.4 0.0
20/03:30pm 19.7 15.2 8.4 48 5.9 SSW 22 30 12 16 1013.3 1013.2 0.0
20/03:00pm 20.1 14.3 8.1 46 6.2 SSW 28 41 15 22 1013.3 1013.2 0.0
20/02:30pm 20.6 13.4 5.0 36 7.6 WSW 32 44 17 24 1013.2 1013.1 0.0
20/02:11pm 20.7 14.0 5.5 37 7.5 WSW 30 48 16 26 1013.2 1013.1 0.0
20/02:00pm 20.3 13.8 6.6 41 6.9 SW 30 44 16 24 1013.4 1013.3 0.0
20/01:30pm 19.4 14.0 6.2 42 6.6 SW 24 35 13 19 1013.3 1013.2 0.0
20/01:00pm 19.2 12.7 6.3 43 6.4 W 30 43 16 23 1013.3 1013.2 0.0
20/12:30pm 19.1 12.4 7.5 47 5.9 WSW 32 43 17 23 1013.5 1013.4 0.0
20/12:11pm 19.2 13.0 7.9 48 5.8 WSW 30 48 16 26 1013.4 1013.3 0.0
20/12:00pm 18.9 12.1 7.0 46 6.0 WSW 32 48 17 26 1013.6 1013.5 0.0
20/11:30am 18.2 12.2 8.7 54 4.9 WSW 30 41 16 22 1013.6 1013.5 0.0
20/11:00am 17.1 11.1 8.8 58 4.3 SW 30 43 16 23 1013.7 1013.6 0.0
20/10:30am 16.9 11.4 9.3 61 4.0 WSW 28 43 15 23 1013.6 1013.5 0.0
20/10:20am 16.7 11.2 9.1 61 3.9 WSW 28 46 15 25 1013.5 1013.4 0.0
20/10:00am 16.2 10.4 9.4 64 3.5 WSW 30 46 16 25 1013.3 1013.2 0.0
20/09:30am 15.2 9.7 9.3 68 3.0 WSW 28 39 15 21 1013.3 1013.2 0.0
20/09:00am 13.7 9.8 9.4 75 2.2 W 20 28 11 15 1012.9 1012.8 2.6
20/08:30am 12.7 8.8 8.8 77 2.0 W 19 24 10 13 1012.7 1012.6 2.6
20/08:00am 12.3 8.2 8.6 78 1.8 W 20 28 11 15 1012.2 1012.1 2.6
20/07:30am 11.9 8.0 8.6 80 1.6 W 19 26 10 14 1011.8 1011.7 2.6
20/07:00am 11.7 7.5 8.4 80 1.6 WNW 20 26 11 14 1011.4 1011.4 2.6
20/06:30am 12.0 8.5 8.8 81 1.6 W 17 26 9 14 1011.1 1011.1 2.6
20/06:00am 11.8 8.3 8.6 81 1.6 W 17 24 9 13 1011.0 1011.0 2.6
20/05:30am 11.4 7.4 8.3 81 1.5 W 19 26 10 14 1010.7 1010.7 2.6
20/05:00am 11.2 7.2 8.1 81 1.5 W 19 30 10 16 1010.5 1010.5 2.6
20/04:30am 11.1 6.8 8.0 81 1.5 W 20 28 11 15 1010.4 1010.4 2.6
20/04:00am 11.1 6.8 8.0 81 1.5 WNW 20 28 11 15 1010.3 1010.3 2.6
20/03:30am 11.1 7.0 8.0 81 1.5 WNW 19 26 10 14 1010.3 1010.3 2.6
20/03:00am 11.3 7.0 7.8 79 1.7 WNW 20 26 11 14 1010.2 1010.2 2.6
20/02:30am 10.9 6.2 7.8 81 1.5 WNW 22 30 12 16 1010.3 1010.3 2.6
20/02:00am 10.8 6.1 7.7 81 1.5 WNW 22 30 12 16 1010.5 1010.5 2.6
20/01:30am 10.5 6.3 7.6 82 1.4 WNW 19 24 10 13 1010.5 1010.5 2.6
20/01:00am 10.2 6.0 7.4 83 1.3 WNW 19 24 10 13 1010.5 1010.5 2.6
20/12:30am 10.6 6.2 7.3 80 1.6 WNW 20 28 11 15 1010.7 1010.7 2.6
20/12:00am 10.1 5.9 7.3 83 1.3 WNW 19 26 10 14 1010.7 1010.7 2.6
 
Date/Time
EDT
Temp
°C
App
Temp
°C
Dew
Point
°C
Rel
Hum
%
Delta-T
°C
Wind Press
QNH
hPa
Press
MSL
hPa
Rain since
9am
mm
Dir  Spd
km/h
Gust
km/h
Spd
kts
Gust
kts
19/11:30pm 10.0 6.1 7.3 83 1.3 WNW 17 20 9 11 1010.7 1010.7 2.6
19/11:00pm 10.5 6.7 7.4 81 1.5 WNW 17 26 9 14 1010.8 1010.8 2.6
19/10:30pm 10.9 7.1 7.4 79 1.7 WNW 17 22 9 12 1010.7 1010.7 2.6
19/10:00pm 11.0 7.2 7.7 80 1.6 WNW 17 20 9 11 1010.6 1010.6 2.6
19/09:30pm 11.1 7.7 7.6 79 1.7 WNW 15 19 8 10 1010.6 1010.6 2.6
19/09:00pm 11.2 8.3 8.1 81 1.5 WNW 13 15 7 8 1010.3 1010.3 2.6
19/08:30pm 11.8 8.2 8.3 79 1.7 W 17 20 9 11 1009.9 1009.9 2.6
19/08:00pm 12.1 7.8 8.0 76 2.0 W 20 26 11 14 1009.5 1009.5 2.6
19/07:30pm 11.4 7.8 8.4 82 1.5 WSW 17 24 9 13 1009.4 1009.4 2.6
19/07:00pm 11.9 6.7 8.9 82 1.5 WSW 26 37 14 20 1009.3 1009.3 2.4
19/06:30pm 12.0 7.2 8.7 80 1.6 WSW 24 37 13 20 1008.8 1008.8 2.0
19/06:00pm 14.6 8.6 7.2 61 3.6 WSW 28 50 15 27 1008.8 1008.8 1.6
19/05:54pm 14.8 8.0 6.9 59 3.9 WSW 32 50 17 27 1008.7 1008.7 1.6
19/05:30pm 14.3 7.3 8.3 67 3.0 SW 35 48 19 26 1008.5 1008.5 1.6
19/05:14pm 16.0 9.0 6.2 52 4.8 WSW 32 69 17 37 1008.1 1008.1 1.6
19/05:11pm 16.5 9.7 4.9 46 5.5 W 30 48 16 26 1007.8 1007.8 1.6
19/05:00pm 17.1 10.4 7.2 52 5.0 WSW 32 44 17 24 1007.9 1007.9 1.6
19/04:30pm 15.4 11.3 8.6 64 3.5 W 20 32 11 17 1007.9 1007.9 1.6
19/04:06pm 13.2 9.2 10.4 83 1.5 WSW 22 32 12 17 1008.1 1008.1 1.6
19/04:00pm 12.1 7.4 9.1 82 1.5 WSW 24 35 13 19 1008.2 1008.2 1.6
19/03:55pm 11.8 5.9 9.0 83 1.4 SW 30 48 16 26 1008.3 1008.3 1.6
19/03:48pm 12.2 6.1 8.3 77 1.9 W 30 48 16 26 1008.5 1008.5 1.6
19/03:45pm 14.9 10.0 8.4 65 3.3 W 24 46 13 25 1008.4 1008.4 0.8
19/03:30pm 15.7 11.7 8.4 62 3.7 WNW 19 26 10 14 1007.9 1007.9 0.8
19/03:18pm 13.6 9.6 9.1 74 2.3 WNW 20 30 11 16 1008.1 1008.1 0.8
19/03:07pm 12.7 7.0 8.2 74 2.2 W 28 46 15 25 1008.4 1008.4 0.8
19/03:06pm 12.8 6.8 8.5 75 2.1 W 30 46 16 25 1008.5 1008.5 0.8
19/03:00pm 13.5 6.3 7.7 68 2.9 W 35 46 19 25 1008.6 1008.6 0.8
19/02:42pm 15.8 9.0 6.8 55 4.4 WNW 32 50 17 27 1008.2 1008.2 0.6
19/02:30pm 16.6 10.3 5.9 49 5.2 W 28 39 15 21 1008.1 1008.1 0.6
19/02:00pm 17.2 11.1 6.4 49 5.3 W 28 43 15 23 1008.4 1008.4 0.6
19/01:30pm 15.3 10.4 8.5 64 3.4 WNW 24 35 13 19 1008.7 1008.7 0.6
19/01:00pm 13.8 9.1 9.3 74 2.3 W 24 32 13 17 1009.2 1009.2 0.6
19/12:30pm 13.2 8.6 9.6 79 1.8 WNW 24 35 13 19 1009.6 1009.6 0.4
19/12:00pm 13.8 9.8 9.0 73 2.4 W 20 32 11 17 1009.8 1009.8 0.0
19/11:30am 14.2 8.9 8.4 68 2.9 W 26 37 14 20 1010.0 1010.0 0.0
19/11:00am 14.7 8.2 8.2 65 3.3 WNW 32 43 17 23 1010.1 1010.1 0.0
19/10:30am 14.7 9.6 7.5 62 3.6 W 24 32 13 17 1010.1 1010.1 0.0

Latest Capital City Observations: Canberra | Sydney | Melbourne | Brisbane | Adelaide | Perth | Hobart | Darwin

Other Formats:

Comma delimited format used in spreadsheet applications
http://www.bom.gov.au/fwo/IDV60901/IDV60901.94865.axf

JavaScript Object Notation format (JSON) in row-major order
http://www.bom.gov.au/fwo/IDV60901/IDV60901.94865.json